Time;durP1;ratioP1;P1;durP2;ratioP2;P2;SDS_P1;SDS_P2;PMS_P1;PMS_P2;Temp;Humidity;BMP_temperature;BMP_pressure;BME280_temperature;BME280_humidity;BME280_pressure;Samples;Min_cycle;Max_cycle;Signal;HPM_P1;HPM_P2
2023/05/09 00:00:00;;;;;;;37.80;27.02;;;16.40;99.90;;;;;;5029266;28;20487;-64
2023/05/09 00:02:28;;;;;;;37.42;26.10;;;16.40;99.90;;;;;;5030625;28;20044;-63
2023/05/09 00:04:54;;;;;;;34.08;23.55;;;16.30;99.90;;;;;;5030902;28;20044;-63
2023/05/09 00:07:19;;;;;;;32.75;25.05;;;16.30;99.90;;;;;;5028779;28;20037;-63
2023/05/09 00:09:45;;;;;;;33.25;24.67;;;16.30;99.90;;;;;;5029584;28;20407;-63
2023/05/09 00:12:11;;;;;;;29.10;22.35;;;16.30;99.90;;;;;;5030008;28;20376;-64
2023/05/09 00:14:38;;;;;;;27.05;20.50;;;16.30;99.90;;;;;;5031004;28;20052;-64
2023/05/09 00:17:03;;;;;;;32.30;23.50;;;16.30;99.90;;;;;;5031816;28;20399;-64
2023/05/09 00:19:29;;;;;;;35.85;26.05;;;16.30;99.90;;;;;;5027296;28;20037;-64
2023/05/09 00:21:55;;;;;;;34.90;24.15;;;16.30;99.90;;;;;;5030496;28;20045;-63
2023/05/09 00:24:20;;;;;;;36.22;26.25;;;16.30;99.90;;;;;;5031229;28;20460;-64
2023/05/09 00:26:46;;;;;;;34.97;25.40;;;16.30;99.90;;;;;;5031934;28;20458;-63
2023/05/09 00:29:11;;;;;;;41.72;27.63;;;16.30;99.90;;;;;;5025213;28;20042;-64
2023/05/09 00:31:37;;;;;;;44.13;27.85;;;16.30;99.90;;;;;;5031006;28;20072;-63
2023/05/09 00:34:02;;;;;;;37.13;26.55;;;16.40;99.90;;;;;;5030710;28;20111;-64
2023/05/09 00:36:28;;;;;;;38.70;26.55;;;16.40;99.90;;;;;;5030609;28;20041;-63
2023/05/09 00:38:54;;;;;;;42.22;28.83;;;16.30;99.90;;;;;;5030442;28;20682;-63
2023/05/09 00:41:20;;;;;;;36.30;26.75;;;16.30;99.90;;;;;;5029849;28;20399;-63
2023/05/09 00:43:45;;;;;;;38.38;27.42;;;16.30;99.90;;;;;;5029780;28;20030;-64
2023/05/09 00:46:11;;;;;;;42.30;28.77;;;16.30;99.90;;;;;;5031334;28;20083;-64
2023/05/09 00:48:37;;;;;;;45.83;28.67;;;16.30;99.90;;;;;;5029047;28;20144;-63
2023/05/09 00:51:03;;;;;;;36.83;25.60;;;16.30;99.90;;;;;;5028740;28;20030;-64
2023/05/09 00:53:29;;;;;;;39.83;27.52;;;16.30;99.90;;;;;;5028076;28;20041;-64
2023/05/09 00:55:56;;;;;;;39.75;26.90;;;16.30;99.90;;;;;;5026935;28;20197;-64
2023/05/09 00:58:22;;;;;;;56.70;33.38;;;16.30;99.90;;;;;;5026302;28;20038;-64
2023/05/09 01:00:48;;;;;;;77.50;38.97;;;16.30;99.90;;;;;;5027822;28;20104;-63
2023/05/09 01:03:13;;;;;;;84.95;41.42;;;16.30;99.90;;;;;;5030429;28;20129;-63
2023/05/09 01:05:51;;;;;;;80.45;40.80;;;16.30;99.90;;;;;;5034463;28;20499;-64
2023/05/09 01:08:48;;;;;;;78.78;38.83;;;16.30;99.90;;;;;;5034416;28;20033;-63
2023/05/09 01:11:40;;;;;;;86.75;41.53;;;16.30;99.90;;;;;;5009999;28;20041;-63
2023/05/09 01:14:39;;;;;;;66.82;35.35;;;16.30;99.90;;;;;;5026324;28;20033;-63
2023/05/09 01:17:18;;;;;;;75.80;36.17;;;16.30;99.90;;;;;;5027333;28;20048;-63
2023/05/09 01:20:10;;;;;;;83.07;39.60;;;16.30;99.90;;;;;;5034241;28;20041;-64
2023/05/09 01:22:38;;;;;;;80.72;38.67;;;16.30;99.90;;;;;;5032342;28;20040;-63
2023/05/09 01:25:18;;;;;;;80.85;39.92;;;16.30;99.90;;;;;;5033555;28;20042;-64
2023/05/09 01:27:58;;;;;;;87.75;41.80;;;16.30;99.90;;;;;;5034181;28;20045;-63
2023/05/09 01:30:25;;;;;;;84.93;40.22;;;16.20;99.90;;;;;;5034829;28;20029;-64
2023/05/09 01:32:55;;;;;;;84.18;40.55;;;16.20;99.90;;;;;;5032638;28;20041;-64
2023/05/09 01:35:25;;;;;;;83.28;40.00;;;16.20;99.90;;;;;;5027755;28;20352;-63
2023/05/09 01:37:52;;;;;;;75.37;39.73;;;16.20;99.90;;;;;;5034803;28;20045;-63
2023/05/09 01:40:20;;;;;;;86.55;41.45;;;16.20;99.90;;;;;;5068087;22;20324;-65
2023/05/09 01:42:55;;;;;;;80.07;40.03;;;16.20;99.90;;;;;;5074075;28;20040;-65
2023/05/09 01:45:22;;;;;;;74.88;38.25;;;16.20;99.90;;;;;;5068701;28;20453;-65
2023/05/09 01:47:49;;;;;;;74.85;38.25;;;16.10;99.90;;;;;;5072287;28;20405;-65
2023/05/09 01:50:16;;;;;;;86.68;39.08;;;16.20;99.90;;;;;;5074197;28;20119;-65
2023/05/09 01:52:46;;;;;;;71.03;36.50;;;16.20;99.90;;;;;;5073173;28;20053;-65
2023/05/09 01:55:13;;;;;;;56.92;32.72;;;16.20;99.90;;;;;;5069433;28;20037;-65
2023/05/09 01:57:40;;;;;;;60.67;33.28;;;16.20;99.90;;;;;;5074331;28;20091;-65
2023/05/09 02:00:08;;;;;;;60.22;34.58;;;16.10;99.90;;;;;;5070849;28;20036;-65
2023/05/09 02:02:35;;;;;;;62.90;36.20;;;16.10;99.90;;;;;;5053564;28;20127;-65
2023/05/09 02:05:01;;;;;;;53.97;34.75;;;16.00;99.90;;;;;;5067409;28;20041;-65
2023/05/09 02:07:29;;;;;;;49.22;32.17;;;16.00;99.90;;;;;;5072228;28;20029;-65
2023/05/09 02:09:56;;;;;;;52.58;33.25;;;16.00;99.90;;;;;;5072329;28;20106;-65
2023/05/09 02:12:23;;;;;;;58.88;33.92;;;16.00;99.90;;;;;;5053754;28;20036;-65
2023/05/09 02:14:49;;;;;;;56.17;33.78;;;15.90;99.90;;;;;;5073813;28;20380;-65
2023/05/09 02:17:16;;;;;;;47.67;32.33;;;16.00;99.90;;;;;;5069138;28;20178;-65
2023/05/09 02:19:42;;;;;;;47.38;31.25;;;15.90;99.90;;;;;;5066049;28;20056;-65
2023/05/09 02:22:09;;;;;;;48.42;31.67;;;15.90;99.90;;;;;;5069560;28;20048;-65
2023/05/09 02:24:35;;;;;;;45.78;30.88;;;15.90;99.90;;;;;;5071711;28;20036;-65
2023/05/09 02:27:04;;;;;;;43.63;29.83;;;15.90;99.90;;;;;;5073139;28;20028;-65
2023/05/09 02:29:40;;;;;;;45.13;30.15;;;15.80;99.90;;;;;;5073610;28;20051;-65
2023/05/09 02:32:12;;;;;;;40.53;28.58;;;15.80;99.90;;;;;;5073343;28;20039;-65
2023/05/09 02:34:39;;;;;;;40.58;27.83;;;15.80;99.90;;;;;;5051376;28;20040;-65
2023/05/09 02:37:06;;;;;;;39.38;27.05;;;15.80;99.90;;;;;;5072964;28;20052;-65
2023/05/09 02:39:32;;;;;;;38.78;27.98;;;15.70;99.90;;;;;;5072957;28;20082;-65
2023/05/09 02:42:09;;;;;;;36.63;25.77;;;15.70;99.90;;;;;;5073334;28;20028;-65
2023/05/09 02:44:35;;;;;;;37.33;25.02;;;15.70;99.90;;;;;;5050245;28;20032;-65
2023/05/09 02:47:02;;;;;;;33.70;24.02;;;15.70;99.90;;;;;;5068752;28;20111;-65
2023/05/09 02:49:27;;;;;;;37.58;25.65;;;15.60;99.90;;;;;;5073279;28;20044;-65
2023/05/09 02:51:53;;;;;;;32.78;24.13;;;15.60;99.90;;;;;;5050585;28;20045;-65
2023/05/09 02:54:18;;;;;;;36.20;24.30;;;15.60;99.90;;;;;;5054720;28;20132;-65
2023/05/09 02:56:44;;;;;;;33.92;24.65;;;15.50;99.90;;;;;;5073008;28;20045;-65
2023/05/09 02:59:10;;;;;;;30.13;22.25;;;15.50;99.90;;;;;;5071124;28;20025;-65
2023/05/09 03:01:35;;;;;;;29.48;21.90;;;15.50;99.90;;;;;;5072459;28;20548;-65
2023/05/09 03:04:01;;;;;;;28.65;21.65;;;15.50;99.90;;;;;;5070906;28;20032;-65
2023/05/09 03:06:26;;;;;;;26.75;19.75;;;15.50;99.90;;;;;;5037432;28;20135;-65
2023/05/09 03:08:52;;;;;;;24.85;19.17;;;15.40;99.90;;;;;;5065350;28;20047;-65
2023/05/09 03:11:18;;;;;;;26.27;19.95;;;15.40;99.90;;;;;;5071621;28;20040;-65
2023/05/09 03:13:43;;;;;;;26.52;19.25;;;15.40;99.90;;;;;;5072296;28;20094;-65
2023/05/09 03:16:11;;;;;;;25.00;19.48;;;15.40;99.90;;;;;;5072882;28;20474;-65
2023/05/09 03:18:37;;;;;;;25.00;18.92;;;15.30;99.90;;;;;;5070276;28;20436;-64
2023/05/09 03:21:03;;;;;;;26.02;19.45;;;15.30;99.90;;;;;;5072178;28;20059;-65
2023/05/09 03:23:28;;;;;;;25.23;19.42;;;15.30;99.90;;;;;;5070276;28;20054;-65
2023/05/09 03:25:54;;;;;;;25.85;19.67;;;15.20;99.90;;;;;;5062909;28;20060;-65
2023/05/09 03:28:19;;;;;;;24.85;19.08;;;15.20;99.90;;;;;;5070948;28;20109;-65
2023/05/09 03:30:45;;;;;;;25.92;18.73;;;15.20;99.90;;;;;;5072298;28;20040;-64
2023/05/09 03:33:10;;;;;;;24.25;18.67;;;15.20;99.90;;;;;;5070010;28;20037;-64
2023/05/09 03:35:36;;;;;;;25.77;18.77;;;15.20;99.90;;;;;;5071520;28;20044;-65
2023/05/09 03:38:01;;;;;;;26.60;19.52;;;15.20;99.90;;;;;;5069918;28;20130;-65
2023/05/09 03:40:27;;;;;;;25.80;18.77;;;15.10;99.90;;;;;;5068217;28;20024;-65
2023/05/09 03:42:52;;;;;;;26.55;19.00;;;15.10;99.90;;;;;;5071831;28;20090;-65
2023/05/09 03:45:18;;;;;;;26.48;19.55;;;15.10;99.90;;;;;;5070292;28;20039;-65
2023/05/09 03:47:44;;;;;;;27.50;19.65;;;15.10;99.90;;;;;;5071921;28;20459;-65
2023/05/09 03:50:10;;;;;;;27.70;19.35;;;15.00;99.90;;;;;;5070854;28;20048;-65
2023/05/09 03:52:36;;;;;;;27.80;19.75;;;15.00;99.90;;;;;;5070053;28;20038;-65
2023/05/09 03:55:02;;;;;;;25.27;18.73;;;15.00;99.90;;;;;;5072078;28;20098;-65
2023/05/09 03:57:27;;;;;;;25.08;19.02;;;15.00;99.90;;;;;;5068070;28;20489;-65
2023/05/09 03:59:53;;;;;;;24.85;18.90;;;15.00;99.90;;;;;;5069408;28;20112;-65
2023/05/09 04:02:19;;;;;;;27.40;19.42;;;15.00;99.90;;;;;;5069029;28;20116;-65
2023/05/09 04:04:46;;;;;;;28.83;19.92;;;15.00;99.90;;;;;;5062013;28;20037;-65
2023/05/09 04:07:11;;;;;;;27.13;20.13;;;15.00;99.90;;;;;;5053546;28;20047;-65
2023/05/09 04:09:37;;;;;;;26.25;19.25;;;15.00;99.90;;;;;;5060407;28;20040;-65
2023/05/09 04:12:03;;;;;;;28.85;19.73;;;15.00;99.90;;;;;;5055787;28;20140;-64
2023/05/09 04:14:28;;;;;;;26.55;19.40;;;15.00;99.90;;;;;;5066581;28;20047;-65
2023/05/09 04:16:54;;;;;;;25.70;18.45;;;15.00;99.90;;;;;;5065145;28;20090;-65
2023/05/09 04:19:19;;;;;;;24.25;17.83;;;14.90;99.90;;;;;;5070310;28;20025;-65
2023/05/09 04:21:45;;;;;;;24.90;19.00;;;15.00;99.90;;;;;;5067634;28;20089;-65
2023/05/09 04:24:10;;;;;;;26.40;18.83;;;15.00;99.90;;;;;;5070024;28;20394;-65
2023/05/09 04:26:37;;;;;;;25.25;18.02;;;15.00;99.90;;;;;;5068962;28;20058;-65
2023/05/09 04:29:03;;;;;;;25.38;18.90;;;14.90;99.90;;;;;;5063372;28;20044;-65
2023/05/09 04:31:30;;;;;;;26.77;19.52;;;15.00;99.90;;;;;;5070554;28;20048;-65
2023/05/09 04:33:57;;;;;;;25.45;18.85;;;15.00;99.90;;;;;;5071185;28;20102;-65
2023/05/09 04:36:22;;;;;;;26.23;19.58;;;15.00;99.90;;;;;;5070611;28;20048;-65
2023/05/09 04:38:48;;;;;;;24.33;19.02;;;15.00;99.90;;;;;;5068591;28;20046;-65
2023/05/09 04:41:14;;;;;;;26.52;20.13;;;15.00;99.90;;;;;;5071166;28;20377;-65
2023/05/09 04:43:41;;;;;;;25.45;18.70;;;15.00;99.90;;;;;;5050878;28;20044;-65
2023/05/09 04:46:07;;;;;;;30.25;20.02;;;15.00;99.90;;;;;;5071509;28;20037;-65
2023/05/09 04:48:34;;;;;;;26.55;20.10;;;15.00;99.90;;;;;;5069898;28;20498;-65
2023/05/09 04:51:00;;;;;;;28.05;19.92;;;15.00;99.90;;;;;;5068009;28;20039;-65
2023/05/09 04:53:27;;;;;;;31.73;21.30;;;15.10;99.90;;;;;;5066012;28;20171;-65
2023/05/09 04:55:53;;;;;;;31.95;21.55;;;15.10;99.90;;;;;;5066402;28;20556;-65
2023/05/09 04:58:19;;;;;;;27.55;20.73;;;15.00;99.90;;;;;;5072017;28;20036;-66
2023/05/09 05:00:45;;;;;;;28.40;20.40;;;15.10;99.90;;;;;;5066707;28;20081;-66
2023/05/09 05:03:11;;;;;;;29.58;20.70;;;15.00;99.90;;;;;;5070404;28;20040;-66
2023/05/09 05:05:36;;;;;;;29.17;20.83;;;15.00;99.90;;;;;;5071162;28;20400;-66
2023/05/09 05:08:02;;;;;;;28.15;20.58;;;15.00;99.90;;;;;;5070737;28;20097;-66
2023/05/09 05:10:29;;;;;;;29.15;20.75;;;15.00;99.90;;;;;;5066703;28;20033;-66
2023/05/09 05:12:54;;;;;;;29.38;20.92;;;15.00;99.90;;;;;;5070176;28;20047;-66
2023/05/09 05:15:20;;;;;;;31.23;21.02;;;15.00;99.90;;;;;;5070221;28;20033;-66
2023/05/09 05:17:45;;;;;;;27.92;20.65;;;15.00;99.90;;;;;;5068612;28;20517;-66
2023/05/09 05:20:11;;;;;;;29.75;20.80;;;15.00;99.90;;;;;;5069768;28;20037;-66
2023/05/09 05:22:37;;;;;;;33.22;22.10;;;15.00;99.90;;;;;;5070879;28;20121;-66
2023/05/09 05:25:03;;;;;;;31.38;21.77;;;15.10;99.90;;;;;;5064634;28;20056;-66
2023/05/09 05:27:29;;;;;;;31.20;21.88;;;15.10;99.90;;;;;;5068876;28;20040;-66
2023/05/09 05:29:55;;;;;;;31.25;22.60;;;15.10;99.90;;;;;;5070021;28;20036;-66
2023/05/09 05:32:20;;;;;;;34.70;22.42;;;15.10;99.90;;;;;;5065257;28;20028;-66
2023/05/09 05:34:46;;;;;;;34.47;22.83;;;15.20;99.90;;;;;;5071099;28;20047;-66
2023/05/09 05:37:12;;;;;;;32.33;21.67;;;15.20;99.90;;;;;;5066994;28;20039;-66
2023/05/09 05:39:37;;;;;;;31.42;22.55;;;15.20;99.90;;;;;;5066173;28;20033;-66
2023/05/09 05:42:03;;;;;;;36.00;23.83;;;15.20;99.90;;;;;;5071423;28;20036;-65
2023/05/09 05:44:28;;;;;;;32.88;23.02;;;15.20;99.90;;;;;;5065285;28;20107;-65
2023/05/09 05:46:54;;;;;;;31.85;22.63;;;15.20;99.90;;;;;;5072565;28;20037;-65
2023/05/09 05:49:19;;;;;;;34.28;22.40;;;15.20;99.90;;;;;;5066060;28;20041;-65
2023/05/09 05:51:45;;;;;;;34.40;23.75;;;15.20;99.90;;;;;;5065992;28;20498;-65
2023/05/09 05:54:10;;;;;;;33.15;23.52;;;15.20;99.90;;;;;;5071600;28;20059;-65
2023/05/09 05:56:36;;;;;;;34.42;23.17;;;15.20;99.90;;;;;;5073785;28;20063;-66
2023/05/09 05:59:02;;;;;;;34.60;23.85;;;15.30;99.90;;;;;;5066367;28;20522;-65
2023/05/09 06:01:27;;;;;;;36.40;24.98;;;15.30;99.90;;;;;;5054000;28;20409;-65
2023/05/09 06:03:55;;;;;;;37.55;24.48;;;15.30;99.90;;;;;;5054390;28;20135;-65
2023/05/09 06:06:21;;;;;;;34.72;24.00;;;15.30;99.90;;;;;;5063113;28;20089;-66
2023/05/09 06:08:50;;;;;;;33.70;22.33;;;15.30;99.90;;;;;;5073115;28;20116;-66
2023/05/09 06:11:16;;;;;;;34.78;23.67;;;15.30;99.90;;;;;;5073986;28;20394;-66
2023/05/09 06:13:42;;;;;;;37.05;24.02;;;15.30;99.90;;;;;;5070923;28;20040;-66
2023/05/09 06:16:08;;;;;;;33.15;23.60;;;15.30;99.90;;;;;;5065995;28;20032;-66
2023/05/09 06:18:38;;;;;;;34.65;24.95;;;15.40;99.90;;;;;;5072985;28;20116;-66
2023/05/09 06:21:07;;;;;;;34.42;24.15;;;15.40;99.90;;;;;;5040289;28;20048;-66
2023/05/09 06:23:35;;;;;;;37.13;24.75;;;15.40;99.90;;;;;;5068374;28;20047;-66
2023/05/09 06:26:01;;;;;;;35.88;25.00;;;15.40;99.90;;;;;;5072174;28;20045;-66
2023/05/09 06:28:27;;;;;;;36.65;25.25;;;15.40;99.90;;;;;;5070863;28;20052;-66
2023/05/09 06:30:52;;;;;;;40.05;24.48;;;15.40;99.90;;;;;;5069190;28;20418;-66
2023/05/09 06:33:18;;;;;;;35.95;24.00;;;15.40;99.90;;;;;;5067826;28;20076;-66
2023/05/09 06:35:43;;;;;;;37.72;24.13;;;15.50;99.90;;;;;;5069911;28;20048;-66
2023/05/09 06:38:09;;;;;;;39.42;24.90;;;15.50;99.90;;;;;;5070260;28;20028;-66
2023/05/09 06:40:35;;;;;;;38.83;25.50;;;15.50;99.90;;;;;;5073097;28;20052;-66
2023/05/09 06:43:00;;;;;;;39.38;25.60;;;15.50;99.90;;;;;;5053037;28;20037;-66
2023/05/09 06:45:26;;;;;;;40.45;25.50;;;15.50;99.90;;;;;;5082965;28;20402;-66
2023/05/09 06:47:51;;;;;;;42.45;27.63;;;15.50;99.90;;;;;;5080327;28;20048;-66
2023/05/09 06:50:17;;;;;;;41.92;27.23;;;15.50;99.90;;;;;;5069335;28;20044;-66
2023/05/09 06:52:42;;;;;;;42.35;26.92;;;15.50;99.90;;;;;;5069959;28;20095;-66
2023/05/09 06:55:09;;;;;;;43.88;27.13;;;15.50;99.90;;;;;;5064565;28;20341;-66
2023/05/09 06:57:34;;;;;;;42.75;26.85;;;15.60;99.90;;;;;;5075075;28;20036;-66
2023/05/09 07:00:00;;;;;;;44.38;27.80;;;15.60;99.90;;;;;;5070904;28;20393;-66
2023/05/09 07:02:25;;;;;;;42.30;27.60;;;15.60;99.90;;;;;;5071305;28;20036;-66
2023/05/09 07:04:51;;;;;;;43.53;27.33;;;15.60;99.90;;;;;;5072407;28;20032;-66
2023/05/09 07:07:16;;;;;;;46.78;28.58;;;15.60;99.90;;;;;;5070434;28;20040;-67
2023/05/09 07:09:42;;;;;;;48.20;29.27;;;15.60;99.90;;;;;;5073030;28;20048;-66
2023/05/09 07:12:08;;;;;;;46.47;28.60;;;15.60;99.90;;;;;;5072042;28;20116;-66
2023/05/09 07:14:34;;;;;;;50.88;28.33;;;15.60;99.90;;;;;;5072405;28;20048;-67
2023/05/09 07:17:00;;;;;;;54.33;31.17;;;15.60;99.90;;;;;;5072776;28;20044;-66
2023/05/09 07:19:25;;;;;;;52.53;31.88;;;15.60;99.90;;;;;;5072433;28;20031;-67
2023/05/09 07:21:51;;;;;;;56.35;30.45;;;15.60;99.90;;;;;;5054701;28;20111;-66
2023/05/09 07:24:17;;;;;;;52.25;30.00;;;15.60;99.90;;;;;;5062087;28;20040;-66
2023/05/09 07:26:42;;;;;;;52.05;30.92;;;15.60;99.90;;;;;;5052687;28;20045;-66
2023/05/09 07:29:08;;;;;;;54.15;30.85;;;15.60;99.90;;;;;;5060133;28;20032;-66
2023/05/09 07:31:33;;;;;;;52.80;30.33;;;15.60;99.90;;;;;;5070536;28;20090;-66
2023/05/09 07:33:59;;;;;;;60.03;31.00;;;15.70;99.90;;;;;;5070005;28;20048;-66
2023/05/09 07:36:24;;;;;;;55.78;30.65;;;15.70;99.90;;;;;;5072308;28;20136;-66
2023/05/09 07:38:51;;;;;;;56.00;32.00;;;15.80;99.90;;;;;;5071850;28;20040;-66
2023/05/09 07:41:17;;;;;;;53.85;30.20;;;15.80;99.90;;;;;;5084280;22;20047;-60
2023/05/09 07:43:43;;;;;;;51.03;29.52;;;15.80;99.90;;;;;;5062226;28;20448;-60
2023/05/09 07:46:08;;;;;;;51.17;30.25;;;15.80;99.90;;;;;;5070546;28;20148;-60
2023/05/09 07:48:34;;;;;;;52.58;31.00;;;15.90;99.90;;;;;;5071157;28;20036;-60
2023/05/09 07:50:59;;;;;;;53.28;29.95;;;15.90;99.90;;;;;;5069756;28;20098;-60
2023/05/09 07:53:25;;;;;;;61.20;33.30;;;15.90;99.90;;;;;;5072326;28;20131;-61
2023/05/09 07:55:51;;;;;;;56.38;31.48;;;16.00;99.90;;;;;;5070504;28;20037;-60
2023/05/09 07:58:17;;;;;;;56.42;32.78;;;16.00;99.90;;;;;;5067187;28;20562;-60
2023/05/09 08:00:43;;;;;;;57.17;32.50;;;16.00;99.90;;;;;;5077097;28;20116;-60
2023/05/09 08:03:08;;;;;;;57.35;32.58;;;16.00;99.90;;;;;;5058304;28;20040;-60
2023/05/09 08:05:34;;;;;;;58.22;32.88;;;16.00;99.90;;;;;;5068301;28;20032;-60
2023/05/09 08:08:00;;;;;;;56.40;31.92;;;16.00;99.90;;;;;;5071757;28;20044;-60
2023/05/09 08:10:29;;;;;;;65.65;34.90;;;16.10;99.90;;;;;;5070207;28;20056;-60
2023/05/09 08:12:55;;;;;;;55.35;31.60;;;16.10;99.90;;;;;;5069803;28;20044;-60
2023/05/09 08:15:21;;;;;;;61.50;34.20;;;16.10;99.90;;;;;;5067489;28;20124;-60
2023/05/09 08:17:46;;;;;;;61.10;34.20;;;16.20;99.90;;;;;;5047085;28;20115;-60
2023/05/09 08:20:12;;;;;;;61.78;33.05;;;16.20;99.90;;;;;;5067567;28;20112;-60
2023/05/09 08:22:39;;;;;;;61.90;33.80;;;16.20;99.90;;;;;;5069975;28;20099;-60
2023/05/09 08:25:06;;;;;;;60.95;32.30;;;16.30;99.90;;;;;;5060337;28;20119;-61
2023/05/09 08:27:31;;;;;;;60.60;33.75;;;16.20;99.90;;;;;;5068811;28;20047;-60
2023/05/09 08:29:57;;;;;;;62.47;34.30;;;16.20;99.90;;;;;;5053188;28;20477;-60
2023/05/09 08:32:22;;;;;;;57.03;32.97;;;16.20;99.90;;;;;;5070900;28;20045;-60
2023/05/09 08:34:48;;;;;;;55.53;32.25;;;16.30;99.90;;;;;;5071476;28;20127;-61
2023/05/09 08:37:13;;;;;;;57.95;32.70;;;16.30;99.90;;;;;;5071309;28;20128;-61
2023/05/09 08:39:39;;;;;;;57.95;32.67;;;16.30;99.90;;;;;;5071101;28;20049;-61
2023/05/09 08:42:06;;;;;;;56.80;31.65;;;16.40;99.90;;;;;;5069798;28;20115;-61
2023/05/09 08:44:32;;;;;;;58.30;32.42;;;16.40;99.90;;;;;;5071010;28;20033;-61
2023/05/09 08:46:59;;;;;;;53.83;30.35;;;16.40;99.90;;;;;;5071703;28;20131;-61
2023/05/09 08:49:25;;;;;;;52.55;31.02;;;16.40;99.90;;;;;;5071622;28;20094;-61
2023/05/09 08:51:51;;;;;;;54.78;31.80;;;16.40;99.90;;;;;;5070909;28;20036;-61
2023/05/09 08:54:18;;;;;;;56.50;30.60;;;16.40;99.90;;;;;;5071398;28;20109;-61
2023/05/09 08:56:44;;;;;;;54.08;31.05;;;16.50;99.90;;;;;;5069978;28;20036;-61
2023/05/09 08:59:09;;;;;;;60.78;31.05;;;16.50;99.90;;;;;;5071610;28;20040;-61
2023/05/09 09:01:35;;;;;;;53.10;29.70;;;16.50;99.90;;;;;;5052869;28;20127;-61
2023/05/09 09:04:05;;;;;;;54.70;30.58;;;16.60;99.90;;;;;;5053635;28;20423;-61
2023/05/09 09:06:32;;;;;;;52.75;29.70;;;16.60;99.90;;;;;;5070964;28;20516;-61
2023/05/09 09:08:59;;;;;;;53.22;30.50;;;16.70;99.90;;;;;;5070858;28;20532;-61
2023/05/09 09:11:25;;;;;;;53.25;30.52;;;16.80;99.90;;;;;;5070585;28;20072;-61
2023/05/09 09:13:52;;;;;;;58.10;30.73;;;16.90;99.90;;;;;;5070191;28;20504;-61
2023/05/09 09:16:20;;;;;;;55.97;31.90;;;17.10;99.90;;;;;;5070874;28;20044;-61
2023/05/09 09:18:46;;;;;;;57.70;30.13;;;17.20;99.90;;;;;;5071395;28;20048;-61
2023/05/09 09:21:17;;;;;;;52.58;29.83;;;17.30;99.90;;;;;;5070633;28;20041;-61
2023/05/09 09:23:46;;;;;;;50.97;28.77;;;17.50;99.90;;;;;;5071156;28;20101;-61
2023/05/09 09:26:12;;;;;;;51.45;29.05;;;17.50;99.90;;;;;;5073815;28;20466;-61
2023/05/09 09:28:38;;;;;;;49.78;29.90;;;17.40;99.90;;;;;;5075030;28;20040;-61
2023/05/09 09:31:23;;;;;;;49.33;28.77;;;17.40;99.90;;;;;;5073056;28;20407;-61
2023/05/09 09:33:49;;;;;;;48.95;27.95;;;17.40;99.90;;;;;;5074486;28;20127;-61
2023/05/09 09:36:14;;;;;;;49.28;29.15;;;17.20;99.90;;;;;;5074150;28;20127;-61
2023/05/09 09:38:44;;;;;;;49.83;28.52;;;17.30;99.90;;;;;;5074800;28;20040;-61
2023/05/09 09:41:11;;;;;;;50.20;28.00;;;17.30;99.90;;;;;;5074321;28;20059;-61
2023/05/09 09:43:37;;;;;;;54.92;29.95;;;17.30;99.90;;;;;;5056402;28;20044;-61
2023/05/09 09:46:03;;;;;;;50.92;27.95;;;17.30;99.90;;;;;;5073208;28;20040;-61
2023/05/09 09:48:36;;;;;;;52.22;29.60;;;17.20;99.90;;;;;;5074400;28;20098;-61
2023/05/09 09:51:10;;;;;;;51.17;29.40;;;17.40;99.90;;;;;;5073870;28;20490;-61
2023/05/09 09:53:40;;;;;;;50.67;29.25;;;17.50;99.90;;;;;;5074639;28;20036;-61
2023/05/09 09:56:06;;;;;;;48.10;27.70;;;17.60;99.90;;;;;;5072991;28;20040;-61
2023/05/09 09:58:32;;;;;;;45.45;27.27;;;17.80;99.90;;;;;;5073760;28;20051;-61
2023/05/09 10:01:15;;;;;;;47.10;26.98;;;17.90;99.90;;;;;;5073696;28;20040;-61
2023/05/09 10:03:46;;;;;;;47.13;27.05;;;18.00;99.90;;;;;;5073481;28;20548;-61
2023/05/09 10:06:14;;;;;;;47.28;26.63;;;18.20;99.90;;;;;;5048681;28;20036;-61
2023/05/09 10:08:41;;;;;;;42.92;25.60;;;18.30;99.90;;;;;;5073462;28;20040;-61
2023/05/09 10:11:08;;;;;;;45.33;25.42;;;18.30;99.90;;;;;;5073663;28;20082;-61
2023/05/09 10:13:37;;;;;;;43.78;27.52;;;18.30;99.90;;;;;;5073033;28;20032;-61
2023/05/09 10:16:04;;;;;;;46.17;27.02;;;18.40;99.90;;;;;;5073659;28;20044;-61
2023/05/09 10:18:30;;;;;;;42.70;25.95;;;18.50;99.90;;;;;;5073949;28;20505;-61
2023/05/09 10:21:02;;;;;;;43.88;25.88;;;18.60;99.90;;;;;;5055400;28;20040;-61
2023/05/09 10:23:29;;;;;;;42.33;25.55;;;18.70;99.90;;;;;;5055975;28;20043;-61
2023/05/09 10:26:19;;;;;;;46.58;27.17;;;18.70;99.90;;;;;;5074101;28;20188;-61
2023/05/09 10:28:48;;;;;;;46.90;27.83;;;18.70;99.90;;;;;;5055091;28;20037;-61
2023/05/09 10:31:24;;;;;;;47.35;27.67;;;18.80;99.90;;;;;;5073613;28;20036;-61
2023/05/09 10:33:50;;;;;;;41.38;27.48;;;18.80;99.90;;;;;;5073196;28;20486;-61
2023/05/09 10:36:21;;;;;;;39.75;24.73;;;18.90;99.90;;;;;;5072606;28;20081;-61
2023/05/09 10:38:47;;;;;;;;;;;18.90;99.90;;;;;;5073972;28;20112;-60
2023/05/09 10:41:15;;;;;;;41.97;26.25;;;18.90;99.90;;;;;;5072816;28;19916;-61
2023/05/09 10:43:41;;;;;;;41.75;26.60;;;18.90;99.90;;;;;;5073900;28;20382;-61
2023/05/09 10:46:08;;;;;;;46.97;26.80;;;18.90;99.90;;;;;;5072055;28;20444;-61
2023/05/09 10:48:35;;;;;;;45.35;27.85;;;18.80;99.90;;;;;;5072412;28;20509;-61
2023/05/09 10:51:01;;;;;;;44.72;27.00;;;18.80;99.90;;;;;;5072768;28;20160;-62
2023/05/09 10:53:42;;;;;;;48.90;27.80;;;18.70;99.90;;;;;;5055456;28;20048;-62
2023/05/09 10:56:08;;;;;;;44.90;27.40;;;18.70;99.90;;;;;;5046681;28;20040;-61
2023/05/09 10:58:39;;;;;;;46.25;27.50;;;18.70;99.90;;;;;;5053571;28;20039;-62
2023/05/09 11:01:05;;;;;;;47.22;29.00;;;18.70;99.90;;;;;;5071736;28;20094;-62
2023/05/09 11:03:53;;;;;;;50.75;29.88;;;18.70;99.90;;;;;;5068791;28;20028;-61
2023/05/09 11:06:43;;;;;;;52.90;29.58;;;18.90;99.90;;;;;;5064721;28;20051;-61
2023/05/09 11:09:33;;;;;;;51.80;31.08;;;19.00;99.90;;;;;;5065060;28;20040;-61
2023/05/09 11:12:09;;;;;;;46.60;28.30;;;19.10;99.90;;;;;;5060625;28;20413;-61
2023/05/09 11:14:39;;;;;;;49.10;28.77;;;19.10;99.90;;;;;;5069329;28;20060;-61
2023/05/09 11:17:07;;;;;;;46.80;27.88;;;19.00;99.90;;;;;;5070108;28;20043;-61
2023/05/09 11:19:37;;;;;;;45.03;28.25;;;19.00;99.90;;;;;;5062218;28;20055;-61
2023/05/09 11:22:14;;;;;;;48.60;29.17;;;18.90;99.90;;;;;;5069511;28;20125;-62
2023/05/09 11:24:52;;;;;;;46.53;28.73;;;18.80;99.90;;;;;;5072732;28;20090;-62
2023/05/09 11:27:22;;;;;;;49.10;29.70;;;18.70;99.90;;;;;;5069819;28;20044;-61
2023/05/09 11:29:53;;;;;;;49.50;29.10;;;18.70;99.90;;;;;;5070951;28;20498;-61
2023/05/09 11:32:19;;;;;;;;;;;18.60;99.90;;;;;;5072354;28;20462;-62
2023/05/09 11:34:46;;;;;;;43.17;26.10;;;18.50;99.90;;;;;;5071624;28;19927;-61
2023/05/09 11:37:14;;;;;;;39.70;25.50;;;18.50;99.90;;;;;;5068598;28;20120;-61
2023/05/09 11:40:01;;;;;;;42.97;26.63;;;18.50;99.90;;;;;;5052151;28;20494;-61
2023/05/09 11:42:28;;;;;;;46.28;28.55;;;18.60;99.90;;;;;;5071717;28;20032;-61
2023/05/09 11:44:55;;;;;;;46.10;27.33;;;18.70;99.90;;;;;;5053717;28;20137;-62
2023/05/09 11:47:21;;;;;;;42.80;26.88;;;18.80;99.90;;;;;;5054696;28;20090;-62
2023/05/09 11:49:50;;;;;;;44.35;27.25;;;18.90;99.90;;;;;;5072161;28;20044;-62
2023/05/09 11:52:20;;;;;;;43.10;27.38;;;19.00;99.90;;;;;;5069935;28;20111;-62
2023/05/09 11:54:46;;;;;;;51.45;30.08;;;19.10;99.90;;;;;;5072071;28;20036;-62
2023/05/09 11:57:16;;;;;;;48.17;26.73;;;19.20;99.90;;;;;;5071338;28;20051;-62
2023/05/09 11:59:42;;;;;;;42.35;26.80;;;19.30;99.90;;;;;;5070855;28;20032;-62
2023/05/09 12:02:08;;;;;;;40.20;23.55;;;19.40;99.90;;;;;;5057170;28;20099;-62
2023/05/09 12:04:34;;;;;;;36.17;23.67;;;19.40;99.90;;;;;;5069507;28;20067;-62
2023/05/09 12:07:00;;;;;;;35.53;23.25;;;19.40;99.90;;;;;;5067130;28;20525;-61
2023/05/09 12:09:34;;;;;;;40.25;24.50;;;19.50;99.90;;;;;;5070278;28;20040;-62
2023/05/09 12:12:00;;;;;;;34.88;20.17;;;19.50;99.90;;;;;;5074014;28;20114;-62
2023/05/09 12:14:33;;;;;;;33.20;21.17;;;19.50;99.90;;;;;;5075465;28;20409;-62
2023/05/09 12:17:00;;;;;;;31.65;20.88;;;19.50;99.90;;;;;;5070414;28;20048;-62
2023/05/09 12:19:27;;;;;;;37.00;21.90;;;19.50;99.90;;;;;;5071816;28;20044;-61
2023/05/09 12:22:00;;;;;;;37.60;24.55;;;19.50;99.90;;;;;;5071290;28;20043;-62
2023/05/09 12:24:27;;;;;;;39.35;24.92;;;19.60;99.90;;;;;;5070720;28;20032;-62
2023/05/09 12:26:54;;;;;;;46.28;27.58;;;19.60;99.90;;;;;;5070069;28;20044;-62
2023/05/09 12:29:21;;;;;;;48.83;28.70;;;19.70;99.90;;;;;;5064670;28;20079;-62